Time;durP1;ratioP1;P1;durP2;ratioP2;P2;SDS_P1;SDS_P2;PMS_P1;PMS_P2;Temp;Humidity;BMP_temperature;BMP_pressure;BME280_temperature;BME280_humidity;BME280_pressure;Samples;Min_cycle;Max_cycle;Signal;HPM_P1;HPM_P2
2021/07/07 00:00:11;;;;;;;24.60;17.27;;;;;;;18.74;100.00;99393.36;1651679;85;20120;-60
2021/07/07 00:02:38;;;;;;;30.10;19.50;;;;;;;18.73;100.00;99394.45;1618515;86;21437;-61
2021/07/07 00:05:06;;;;;;;31.35;17.82;;;;;;;18.70;100.00;99392.37;1638434;86;20921;-61
2021/07/07 00:07:33;;;;;;;;;;;;;;;18.70;100.00;99401.08;1606709;87;21820;-61
2021/07/07 00:10:01;;;;;;;26.70;17.23;;;;;;;18.70;100.00;99399.72;1624057;88;20153;-62
2021/07/07 00:12:27;;;;;;;21.50;16.50;;;;;;;18.71;100.00;99398.59;1632426;85;20976;-62
2021/07/07 00:14:53;;;;;;;22.25;16.55;;;;;;;18.70;100.00;99399.16;1625861;88;20993;-62
2021/07/07 00:17:20;;;;;;;21.87;15.93;;;;;;;18.72;100.00;99405.66;1608888;86;20960;-61
2021/07/07 00:19:47;;;;;;;23.47;17.48;;;;;;;18.74;100.00;99404.77;1664041;84;21137;-62
2021/07/07 00:22:14;;;;;;;20.85;15.20;;;;;;;18.74;100.00;99405.59;1676116;84;21356;-61
2021/07/07 00:24:41;;;;;;;22.77;15.18;;;;;;;18.72;100.00;99407.81;1657283;84;20895;-61
2021/07/07 00:27:09;;;;;;;21.65;16.30;;;;;;;18.71;100.00;99411.63;1658775;83;20895;-62
2021/07/07 00:29:36;;;;;;;24.10;17.07;;;;;;;18.70;100.00;99403.80;1660977;84;21533;-61
2021/07/07 00:32:03;;;;;;;20.27;15.30;;;;;;;18.65;100.00;99407.45;1662342;83;21144;-61
2021/07/07 00:34:30;;;;;;;24.55;16.55;;;;;;;18.60;100.00;99409.73;1668572;84;21023;-60
2021/07/07 00:36:57;;;;;;;23.20;15.78;;;;;;;18.57;100.00;99413.62;1676173;83;20923;-61
2021/07/07 00:39:23;;;;;;;22.98;16.05;;;;;;;18.53;100.00;99415.37;1668515;84;20959;-61
2021/07/07 00:41:49;;;;;;;26.12;16.87;;;;;;;18.49;100.00;99413.81;1671590;84;21517;-60
2021/07/07 00:44:16;;;;;;;27.98;15.98;;;;;;;18.47;100.00;99415.23;1676625;83;21124;-61
2021/07/07 00:46:45;;;;;;;28.15;16.67;;;;;;;18.42;100.00;99408.83;1661115;84;20942;-61
2021/07/07 00:49:13;;;;;;;22.10;16.23;;;;;;;18.38;100.00;99417.91;1681063;83;21355;-61
2021/07/07 00:51:40;;;;;;;21.48;17.73;;;;;;;18.34;100.00;99420.98;1687310;84;21393;-60
2021/07/07 00:54:08;;;;;;;21.75;16.55;;;;;;;18.29;100.00;99417.83;1679480;84;21023;-61
2021/07/07 00:56:35;;;;;;;25.92;16.87;;;;;;;18.25;100.00;99418.75;1637559;85;21186;-60
2021/07/07 00:59:06;;;;;;;21.85;17.05;;;;;;;18.18;100.00;99415.92;1665064;83;20876;-60
2021/07/07 01:01:34;;;;;;;24.70;16.15;;;;;;;18.14;100.00;99412.77;1655383;85;21363;-61
2021/07/07 01:04:00;;;;;;;23.32;18.23;;;;;;;18.07;100.00;99415.89;1681111;83;21430;-62
2021/07/07 01:06:27;;;;;;;29.50;20.88;;;;;;;18.02;100.00;99417.38;1664947;83;21071;-60
2021/07/07 01:08:54;;;;;;;33.75;23.57;;;;;;;17.98;100.00;99415.01;1661688;85;21184;-60
2021/07/07 01:11:20;;;;;;;29.02;21.10;;;;;;;17.97;100.00;99412.05;1669721;83;20916;-60
2021/07/07 01:13:47;;;;;;;42.10;26.45;;;;;;;17.98;100.00;99410.41;1658572;83;20897;-61
2021/07/07 01:16:13;;;;;;;44.63;30.50;;;;;;;17.97;100.00;99412.05;1663646;84;20888;-60
2021/07/07 01:18:41;;;;;;;47.55;30.57;;;;;;;17.94;100.00;99409.41;1665404;84;24177;-61
2021/07/07 01:21:08;;;;;;;41.33;27.45;;;;;;;17.94;100.00;99413.48;1661858;83;21105;-61
2021/07/07 01:23:34;;;;;;;41.95;29.35;;;;;;;17.98;100.00;99417.72;1672108;83;20944;-62
2021/07/07 01:26:03;;;;;;;40.65;27.32;;;;;;;18.02;100.00;99417.93;1656272;85;21381;-60
2021/07/07 01:28:31;;;;;;;43.25;28.40;;;;;;;18.04;100.00;99423.30;1665867;83;20971;-61
2021/07/07 01:30:57;;;;;;;;;;;;;;;18.08;100.00;99413.44;1673579;83;21060;-61
2021/07/07 01:33:23;;;;;;;41.28;26.87;;;;;;;18.10;100.00;99416.63;1669549;83;21190;-61
2021/07/07 01:35:50;;;;;;;42.38;28.60;;;;;;;18.12;100.00;99417.69;1663703;84;20885;-61
2021/07/07 01:38:16;;;;;;;36.23;25.50;;;;;;;18.10;100.00;99420.70;1640913;84;20908;-61
2021/07/07 01:40:43;;;;;;;39.60;25.72;;;;;;;18.10;100.00;99417.19;1658346;84;20928;-61
2021/07/07 01:43:11;;;;;;;34.78;23.95;;;;;;;18.07;100.00;99421.33;1657825;83;21379;-61
2021/07/07 01:45:39;;;;;;;33.15;25.25;;;;;;;18.06;100.00;99417.02;1663127;83;21189;-62
2021/07/07 01:48:05;;;;;;;38.40;24.98;;;;;;;18.04;100.00;99423.86;1656896;83;21051;-61
2021/07/07 01:50:32;;;;;;;39.78;25.62;;;;;;;17.98;100.00;99425.34;1659345;83;20987;-61
2021/07/07 01:52:58;;;;;;;34.50;24.07;;;;;;;17.94;100.00;99422.98;1681132;84;20948;-61
2021/07/07 01:55:25;;;;;;;30.72;24.70;;;;;;;17.93;100.00;99417.31;1669932;84;20996;-62
2021/07/07 01:57:54;;;;;;;32.50;22.98;;;;;;;17.93;100.00;99422.74;1655823;85;21093;-61
2021/07/07 02:00:30;;;;;;;31.42;22.95;;;;;;;17.91;100.00;99420.88;1678255;84;21430;-61
2021/07/07 02:02:57;;;;;;;31.10;24.52;;;;;;;17.86;100.00;99426.42;1662505;83;20912;-62
2021/07/07 02:05:29;;;;;;;24.32;21.30;;;;;;;17.84;100.00;99426.48;1665275;84;20884;-61
2021/07/07 02:07:59;;;;;;;24.45;20.57;;;;;;;17.79;100.00;99421.37;1657785;86;20936;-61
2021/07/07 02:10:25;;;;;;;28.67;20.82;;;;;;;17.78;100.00;99422.49;1627943;85;21765;-62
2021/07/07 02:12:52;;;;;;;23.60;18.37;;;;;;;17.74;100.00;99418.77;1624208;85;21632;-60
2021/07/07 02:15:25;;;;;;;24.67;19.67;;;;;;;17.73;100.00;99424.49;1634819;86;21465;-60
2021/07/07 02:17:54;;;;;;;25.77;19.73;;;;;;;17.74;100.00;99425.56;1671126;83;21384;-61
2021/07/07 02:20:20;;;;;;;24.35;18.35;;;;;;;17.75;100.00;99423.64;1656640;85;21015;-61
2021/07/07 02:22:47;;;;;;;23.20;19.45;;;;;;;17.73;100.00;99425.30;1670532;83;21115;-62
2021/07/07 02:25:19;;;;;;;24.00;18.60;;;;;;;17.74;100.00;99426.92;1657941;84;20994;-61
2021/07/07 02:27:45;;;;;;;29.27;19.05;;;;;;;17.73;100.00;99425.85;1658942;85;21477;-61
2021/07/07 02:30:14;;;;;;;25.27;18.05;;;;;;;17.73;100.00;99437.50;1658235;83;20932;-61
2021/07/07 02:32:41;;;;;;;21.93;18.65;;;;;;;17.75;100.00;99433.14;1652500;83;20979;-61
2021/07/07 02:35:11;;;;;;;17.48;15.63;;;;;;;17.73;100.00;99434.79;1662103;84;21027;-61
2021/07/07 02:37:39;;;;;;;25.88;18.42;;;;;;;17.73;100.00;99438.86;1653872;85;20992;-63
2021/07/07 02:40:09;;;;;;;21.77;18.05;;;;;;;17.80;100.00;99438.48;1652865;85;21047;-62
2021/07/07 02:42:35;;;;;;;24.55;16.50;;;;;;;17.82;100.00;99436.28;1649293;86;20920;-62
2021/07/07 02:45:06;;;;;;;22.17;16.97;;;;;;;17.83;100.00;99431.09;1608666;87;21383;-61
2021/07/07 02:47:32;;;;;;;22.67;17.20;;;;;;;17.85;100.00;99430.79;1662767;83;21127;-61
2021/07/07 02:49:58;;;;;;;19.95;17.70;;;;;;;17.87;100.00;99434.80;1661505;85;20971;-61
2021/07/07 02:52:25;;;;;;;21.87;15.80;;;;;;;17.89;100.00;99437.23;1654610;83;20996;-61
2021/07/07 02:54:52;;;;;;;24.18;16.10;;;;;;;17.92;100.00;99439.33;1663310;84;21019;-61
2021/07/07 02:57:19;;;;;;;21.42;16.82;;;;;;;17.97;100.00;99443.28;1674368;84;21074;-61
2021/07/07 02:59:46;;;;;;;19.77;15.70;;;;;;;18.00;100.00;99443.46;1681440;84;21167;-61
2021/07/07 03:02:12;;;;;;;17.92;15.13;;;;;;;18.04;100.00;99443.67;1671486;84;20948;-61
2021/07/07 03:04:38;;;;;;;30.02;17.62;;;;;;;18.14;100.00;99438.00;1653908;86;20945;-61
2021/07/07 03:07:07;;;;;;;19.07;14.73;;;;;;;18.25;100.00;99447.27;1600229;86;20945;-61
2021/07/07 03:09:33;;;;;;;21.50;17.85;;;;;;;18.37;100.00;99455.15;1611267;87;21454;-61
2021/07/07 03:11:59;;;;;;;19.98;17.57;;;;;;;18.46;100.00;99457.91;1600891;88;22316;-61
2021/07/07 03:14:26;;;;;;;27.87;19.25;;;;;;;18.56;100.00;99456.87;1599503;87;20919;-60
2021/07/07 03:16:52;;;;;;;34.50;21.75;;;;;;;18.68;100.00;99453.03;1611431;87;21386;-61
2021/07/07 03:19:19;;;;;;;67.90;32.33;;;;;;;18.74;100.00;99461.86;1656753;86;20888;-60
2021/07/07 03:21:45;;;;;;;74.75;35.70;;;;;;;18.77;100.00;99460.73;1671004;84;21055;-61
2021/07/07 03:24:11;;;;;;;73.07;36.45;;;;;;;18.81;100.00;99463.62;1653651;86;21118;-61
2021/07/07 03:26:38;;;;;;;62.83;31.68;;;;;;;18.88;100.00;99462.63;1654732;86;20959;-61
2021/07/07 03:29:05;;;;;;;59.48;28.50;;;;;;;18.98;100.00;99468.36;1604078;87;20856;-61
2021/07/07 03:31:31;;;;;;;37.63;22.98;;;;;;;19.08;100.00;99467.29;1635271;84;21008;-61
2021/07/07 03:33:58;;;;;;;29.82;21.37;;;;;;;19.21;100.00;99478.66;1677419;83;20880;-61
2021/07/07 03:36:25;;;;;;;32.93;21.30;;;;;;;19.28;100.00;99476.29;1667522;84;21488;-62
2021/07/07 03:38:51;;;;;;;25.12;18.35;;;;;;;19.39;100.00;99476.80;1681643;84;20928;-61
2021/07/07 03:41:18;;;;;;;28.38;17.25;;;;;;;19.49;100.00;99481.96;1659242;84;21023;-62
2021/07/07 03:43:44;;;;;;;24.47;17.90;;;;;;;19.61;100.00;99480.80;1656850;84;21381;-62
2021/07/07 03:46:10;;;;;;;19.42;15.38;;;;;;;19.70;100.00;99486.31;1655183;85;21107;-62
2021/07/07 03:48:38;;;;;;;20.20;15.87;;;;;;;19.81;100.00;99493.62;1661955;84;22259;-61
2021/07/07 03:51:04;;;;;;;25.10;14.28;;;;;;;19.87;100.00;99492.38;1684318;83;20838;-60
2021/07/07 03:53:31;;;;;;;17.80;14.00;;;;;;;19.93;100.00;99492.45;1680046;83;21437;-61
2021/07/07 03:55:58;;;;;;;17.75;14.00;;;;;;;19.97;100.00;99501.60;1658842;83;20896;-63
2021/07/07 03:58:24;;;;;;;17.07;13.20;;;;;;;20.02;100.00;99502.02;1664573;83;21568;-63
2021/07/07 04:00:50;;;;;;;17.48;13.05;;;;;;;20.05;100.00;99501.38;1661036;85;21127;-63
2021/07/07 04:03:17;;;;;;;14.13;12.53;;;;;;;20.10;100.00;99502.02;1673153;84;21366;-63
2021/07/07 04:05:44;;;;;;;15.75;14.07;;;;;;;20.10;100.00;99502.02;1657136;84;21426;-62
2021/07/07 04:08:11;;;;;;;14.70;12.78;;;;;;;20.38;100.00;99503.64;1658176;84;20908;-65
2021/07/07 04:10:37;;;;;;;23.02;13.08;;;;;;;20.38;100.00;99503.64;1668448;83;21048;-62
2021/07/07 04:13:04;;;;;;;14.73;13.10;;;;;;;20.44;100.00;99507.25;1682724;84;21135;-62
2021/07/07 04:15:30;;;;;;;16.48;13.93;;;;;;;20.38;100.00;99498.98;1664947;83;20923;-61
2021/07/07 04:17:57;;;;;;;17.40;13.70;;;;;;;20.26;100.00;99505.63;1671904;84;20896;-61
2021/07/07 04:20:24;;;;;;;17.50;14.03;;;;;;;20.26;100.00;99505.63;1669526;84;20940;-61
2021/07/07 04:22:51;;;;;;;18.92;13.45;;;;;;;20.28;100.00;99506.12;1664524;85;21454;-61
2021/07/07 04:25:17;;;;;;;16.17;11.55;;;;;;;20.52;100.00;99509.17;1652761;85;21714;-61
2021/07/07 04:27:44;;;;;;;16.45;13.70;;;;;;;20.52;100.00;99509.17;1634600;85;20953;-62
2021/07/07 04:30:15;;;;;;;15.88;13.93;;;;;;;20.54;100.00;99511.02;1654764;85;21324;-61
2021/07/07 04:32:42;;;;;;;14.50;12.28;;;;;;;20.42;100.00;99517.67;1668707;84;20936;-61
2021/07/07 04:35:10;;;;;;;15.68;13.88;;;;;;;20.41;100.00;99522.89;1664517;84;21080;-61
2021/07/07 04:37:37;;;;;;;19.40;13.78;;;;;;;20.55;100.00;99520.03;1685684;83;21128;-61
2021/07/07 04:40:07;;;;;;;14.73;13.22;;;;;;;20.80;100.00;99520.33;1656394;84;20876;-61
2021/07/07 04:42:33;;;;;;;18.73;12.95;;;;;;;21.08;100.00;99518.84;1678987;82;20941;-62
2021/07/07 04:45:00;;;;;;;14.93;12.73;;;;;;;21.26;100.00;99520.17;1676256;83;20885;-62
2021/07/07 04:47:28;;;;;;;17.10;13.25;;;;;;;21.41;100.00;99515.56;1675528;83;20964;-61
2021/07/07 04:49:55;;;;;;;14.33;12.65;;;;;;;21.35;100.00;99527.77;1684636;83;21145;-61
2021/07/07 04:52:21;;;;;;;14.53;13.05;;;;;;;21.22;100.00;99527.42;1678749;84;21440;-62
2021/07/07 04:54:48;;;;;;;14.23;12.35;;;;;;;21.13;100.00;99533.69;1658526;84;20944;-62
2021/07/07 04:57:14;;;;;;;15.48;13.75;;;;;;;21.15;100.00;99531.44;1643147;85;21046;-62
2021/07/07 04:59:41;;;;;;;14.68;12.85;;;;;;;21.20;100.00;99538.66;1626042;86;20997;-62
2021/07/07 05:02:07;;;;;;;16.02;12.90;;;;;;;21.42;100.00;99539.59;1661843;83;21103;-62
2021/07/07 05:04:34;;;;;;;15.05;13.45;;;;;;;21.58;100.00;99542.00;1656467;84;21541;-62
2021/07/07 05:07:01;;;;;;;15.48;13.25;;;;;;;21.73;100.00;99549.67;1654834;85;21009;-62
2021/07/07 05:09:29;;;;;;;17.75;12.88;;;;;;;21.93;100.00;99550.06;1632917;86;21562;-62
2021/07/07 05:11:55;;;;;;;13.98;12.15;;;;;;;22.07;100.00;99556.64;1633328;86;21001;-62
2021/07/07 05:14:22;;;;;;;15.00;12.73;;;;;;;22.40;100.00;99554.86;1666690;85;21172;-61
2021/07/07 05:16:48;;;;;;;19.12;13.03;;;;;;;22.50;100.00;99551.50;1648716;85;21007;-63
2021/07/07 05:19:15;;;;;;;18.00;11.40;;;;;;;22.59;100.00;99561.81;1666090;85;21477;-62
2021/07/07 05:21:42;;;;;;;13.33;12.03;;;;;;;22.71;100.00;99568.71;1673056;85;20966;-62
2021/07/07 05:24:09;;;;;;;13.48;12.07;;;;;;;22.68;100.00;99572.92;1645150;84;21040;-63
2021/07/07 05:26:36;;;;;;;18.05;12.70;;;;;;;22.65;100.00;99573.56;1653666;85;21156;-63
2021/07/07 05:29:02;;;;;;;14.87;12.95;;;;;;;22.65;100.00;99572.77;1643012;86;21422;-63
2021/07/07 05:31:29;;;;;;;18.30;12.80;;;;;;;22.64;100.00;99568.45;1651585;85;20956;-62
2021/07/07 05:33:55;;;;;;;15.50;12.80;;;;;;;22.56;100.00;99571.45;1632994;86;20925;-61
2021/07/07 05:36:22;;;;;;;13.72;12.30;;;;;;;22.70;100.00;99575.30;1630017;87;20971;-61
2021/07/07 05:38:48;;;;;;;19.25;13.15;;;;;;;22.90;100.00;99580.52;1618626;87;21178;-62
2021/07/07 05:41:15;;;;;;;18.12;13.45;;;;;;;23.17;100.00;99582.48;1653244;86;20896;-62
2021/07/07 05:43:41;;;;;;;14.93;12.80;;;;;;;23.25;100.00;99584.33;1611416;86;20935;-62
2021/07/07 05:46:08;;;;;;;14.73;12.10;;;;;;;23.44;100.00;99581.87;1628528;86;21446;-61
2021/07/07 05:48:34;;;;;;;14.18;12.68;;;;;;;23.64;100.00;99589.80;1639156;84;20880;-61
2021/07/07 05:51:01;;;;;;;11.48;10.38;;;;;;;24.05;100.00;99584.47;1630897;86;21085;-61
2021/07/07 05:53:28;;;;;;;13.43;11.95;;;;;;;24.22;100.00;99596.58;1662340;84;20940;-62
2021/07/07 05:55:55;;;;;;;13.78;12.10;;;;;;;24.34;100.00;99594.39;1679213;85;21438;-61
2021/07/07 05:58:21;;;;;;;14.28;10.98;;;;;;;24.41;100.00;99596.56;1661340;84;20976;-62
2021/07/07 06:00:48;;;;;;;12.98;11.33;;;;;;;24.62;100.00;99598.62;1670573;85;20976;-62
2021/07/07 06:03:14;;;;;;;15.08;10.65;;;;;;;24.73;100.00;99598.34;1665890;84;23266;-62
2021/07/07 06:05:41;;;;;;;10.58;9.48;;;;;;;24.87;100.00;99597.97;1667733;85;20992;-61
2021/07/07 06:08:07;;;;;;;12.10;10.90;;;;;;;25.02;100.00;99596.42;1683388;84;21084;-61
2021/07/07 06:10:34;;;;;;;17.45;11.78;;;;;;;25.16;100.00;99600.94;1679312;84;21047;-63
2021/07/07 06:13:00;;;;;;;11.65;10.45;;;;;;;25.11;100.00;99601.19;1676799;84;20912;-62
2021/07/07 06:15:31;;;;;;;15.83;10.98;;;;;;;24.84;100.00;99604.70;1660490;85;21406;-63
2021/07/07 06:17:59;;;;;;;15.15;11.57;;;;;;;24.46;100.00;99603.22;1674052;84;20965;-62
2021/07/07 06:20:26;;;;;;;13.93;10.90;;;;;;;24.28;100.00;99605.39;1673714;85;20897;-62
2021/07/07 06:22:52;;;;;;;18.45;11.57;;;;;;;24.29;100.00;99607.77;1658238;84;20928;-63
2021/07/07 06:25:19;;;;;;;11.90;10.05;;;;;;;24.28;100.00;99609.50;1660038;86;21441;-63
2021/07/07 06:27:45;;;;;;;15.80;12.15;;;;;;;24.39;100.00;99608.66;1658492;84;21125;-64
2021/07/07 06:30:15;;;;;;;18.65;12.15;;;;;;;24.52;100.00;99613.61;1671857;83;21315;-65
2021/07/07 06:32:45;;;;;;;13.32;10.53;;;;;;;24.68;100.00;99616.42;1672593;83;20911;-64
2021/07/07 06:35:12;;;;;;;17.87;10.45;;;;;;;25.12;100.00;99615.14;1671850;83;21443;-64
2021/07/07 06:37:38;;;;;;;19.80;8.10;;;;;;;25.95;100.00;99618.73;1680268;82;21062;-63
2021/07/07 06:40:08;;;;;;;11.05;6.05;;;;;;;26.54;100.00;99625.23;1686256;83;21464;-65
2021/07/07 06:42:34;;;;;;;5.53;5.03;;;;;;;26.85;100.00;99625.13;1666252;83;20964;-64
2021/07/07 06:45:01;;;;;;;7.55;5.30;;;;;;;26.83;93.89;99634.92;1650135;83;21107;-64
2021/07/07 06:47:27;;;;;;;5.22;4.83;;;;;;;26.78;95.91;99634.62;1636195;85;21003;-65
2021/07/07 06:49:55;;;;;;;10.55;5.42;;;;;;;26.62;90.77;99635.23;1658044;85;36107;-63
2021/07/07 06:52:22;;;;;;;6.37;5.13;;;;;;;26.61;91.86;99639.16;1675612;85;22580;-64
2021/07/07 06:54:49;;;;;;;9.73;5.58;;;;;;;26.76;94.24;99641.64;1670507;84;21382;-65
2021/07/07 06:57:16;;;;;;;7.33;5.17;;;;;;;26.94;86.07;99644.19;1672975;84;21051;-64
2021/07/07 06:59:42;;;;;;;8.97;4.87;;;;;;;27.03;86.42;99638.47;1677365;84;20936;-65
2021/07/07 07:02:09;;;;;;;5.15;4.65;;;;;;;27.02;84.86;99637.68;1671992;84;21468;-65
2021/07/07 07:04:35;;;;;;;10.75;4.95;;;;;;;27.07;83.20;99641.52;1676856;84;21139;-66
2021/07/07 07:07:03;;;;;;;8.15;5.12;;;;;;;27.10;83.46;99642.75;1669136;83;21472;-67
2021/07/07 07:09:30;;;;;;;9.68;5.60;;;;;;;27.08;80.33;99643.69;1675870;83;20981;-66
2021/07/07 07:11:56;;;;;;;15.27;5.43;;;;;;;26.71;82.96;99643.52;1680942;84;21431;-66
2021/07/07 07:14:23;;;;;;;9.55;4.58;;;;;;;26.33;83.29;99640.06;1674371;84;22099;-66
2021/07/07 07:16:50;;;;;;;7.60;4.87;;;;;;;26.42;81.87;99648.13;1655416;84;21141;-66
2021/07/07 07:19:16;;;;;;;8.77;4.57;;;;;;;26.62;78.53;99648.41;1655520;85;20946;-65
2021/07/07 07:21:43;;;;;;;7.70;4.20;;;;;;;27.10;79.83;99644.92;1638000;86;20921;-66
2021/07/07 07:24:10;;;;;;;7.77;3.93;;;;;;;27.58;65.90;99647.42;1578453;88;21059;-65
2021/07/07 07:26:36;;;;;;;10.88;3.47;;;;;;;27.82;68.86;99654.58;1602054;88;20958;-66
2021/07/07 07:29:04;;;;;;;4.20;3.50;;;;;;;27.78;64.46;99655.06;1610959;88;21158;-65
2021/07/07 07:31:30;;;;;;;8.65;3.77;;;;;;;27.61;62.98;99650.02;1618306;86;20987;-66
2021/07/07 07:33:57;;;;;;;6.50;3.50;;;;;;;27.76;63.28;99654.06;1584155;88;20963;-66
2021/07/07 07:36:25;;;;;;;6.47;3.80;;;;;;;28.00;64.44;99655.69;1611908;86;21324;-65
2021/07/07 07:39:04;;;;;;;4.55;3.40;;;;;;;28.00;62.05;99660.39;1675579;85;21087;-66
2021/07/07 07:41:33;;;;;;;6.50;3.02;;;;;;;27.77;62.30;99654.27;1661933;85;21794;-65
2021/07/07 07:44:00;;;;;;;5.92;3.83;;;;;;;27.53;62.94;99651.86;1673061;84;20985;-65
2021/07/07 07:46:29;;;;;;;4.65;3.95;;;;;;;27.54;62.09;99654.27;1671533;85;20956;-66
2021/07/07 07:48:56;;;;;;;5.65;3.65;;;;;;;27.69;63.54;99655.31;1664831;83;21039;-65
2021/07/07 07:51:23;;;;;;;;;;;;;;;27.89;64.57;99654.70;1669342;84;21430;-65
2021/07/07 07:53:50;;;;;;;5.70;3.75;;;;;;;28.04;65.32;99661.84;1642005;85;21059;-65
2021/07/07 07:56:18;;;;;;;10.43;4.60;;;;;;;28.17;61.76;99664.61;1634107;86;20913;-67
2021/07/07 07:58:45;;;;;;;;;;;;;;;28.26;62.52;99655.50;1642264;86;20932;-67
2021/07/07 08:01:12;;;;;;;4.70;4.20;;;;;;;27.89;61.62;99660.81;1651027;86;20175;-66
2021/07/07 08:03:38;;;;;;;8.80;4.13;;;;;;;27.49;64.33;99659.28;1643844;86;21445;-68
2021/07/07 08:06:06;;;;;;;7.22;4.90;;;;;;;27.10;67.94;99660.66;1647905;85;21135;-68
2021/07/07 08:08:32;;;;;;;7.97;4.17;;;;;;;27.45;68.16;99661.17;1637371;86;21138;-67
2021/07/07 08:11:01;;;;;;;7.03;4.35;;;;;;;27.81;66.69;99659.86;1644062;85;21583;-67
2021/07/07 08:13:28;;;;;;;5.15;3.22;;;;;;;27.76;63.17;99662.92;1636333;86;21042;-66
2021/07/07 08:15:54;;;;;;;5.62;4.28;;;;;;;27.27;64.48;99669.09;1663100;84;21083;-65
2021/07/07 08:18:21;;;;;;;7.80;3.97;;;;;;;27.34;65.27;99669.21;1648788;84;21173;-65
2021/07/07 08:20:47;;;;;;;4.80;3.87;;;;;;;27.80;65.84;99672.83;1639973;85;21064;-64
2021/07/07 08:23:14;;;;;;;7.55;3.87;;;;;;;27.97;62.94;99678.47;1623393;87;21035;-65
2021/07/07 08:25:40;;;;;;;5.15;4.25;;;;;;;28.26;62.66;99673.44;1649227;85;21130;-66
2021/07/07 08:28:07;;;;;;;6.53;4.35;;;;;;;28.49;61.92;99680.31;1648692;86;21035;-66
2021/07/07 08:30:33;;;;;;;8.48;4.62;;;;;;;28.33;62.74;99679.66;1648636;86;21075;-65
2021/07/07 08:33:00;;;;;;;8.00;4.50;;;;;;;27.90;63.93;99679.73;1653471;85;20936;-65
2021/07/07 08:37:53;;;;;;;7.12;4.55;;;;;;;28.02;65.72;99677.38;1640910;86;21039;-64
2021/07/07 08:40:22;;;;;;;5.90;3.20;;;;;;;28.76;63.79;99683.89;1640225;86;21059;-66
2021/07/07 08:42:49;;;;;;;7.00;3.33;;;;;;;28.84;57.74;99686.16;1611284;86;21153;-64
2021/07/07 08:45:17;;;;;;;6.20;3.60;;;;;;;28.68;58.29;99692.43;1585193;88;21512;-65
2021/07/07 08:47:44;;;;;;;8.23;3.52;;;;;;;29.04;61.19;99695.10;1647696;86;21028;-65
2021/07/07 08:50:26;;;;;;;5.35;2.87;;;;;;;28.99;57.30;99698.20;1643765;86;21580;-66
2021/07/07 08:52:54;;;;;;;5.28;3.72;;;;;;;28.69;57.13;99687.93;1618070;87;21052;-65
2021/07/07 08:55:21;;;;;;;6.80;3.80;;;;;;;28.00;60.34;99694.88;1596863;88;21149;-64
2021/07/07 08:57:48;;;;;;;4.55;3.80;;;;;;;27.86;58.51;99696.81;1643514;85;22333;-65
2021/07/07 09:00:33;;;;;;;16.07;4.10;;;;;;;27.91;60.66;99703.41;1638788;86;28370;-64
2021/07/07 09:05:33;;;;;;;3.70;2.80;;;;;;;27.99;61.58;99707.08;1644783;85;21093;-64
2021/07/07 09:08:05;;;;;;;6.12;4.00;;;;;;;27.87;61.21;99710.81;1643524;86;21010;-64
2021/07/07 09:10:32;;;;;;;6.12;3.42;;;;;;;27.83;62.27;99712.73;1634671;86;20996;-64
2021/07/07 09:13:10;;;;;;;8.73;4.15;;;;;;;27.98;59.74;99714.57;1642535;86;21066;-64
2021/07/07 09:15:37;;;;;;;5.95;3.17;;;;;;;27.85;60.06;99715.10;1633974;86;21370;-65
2021/07/07 09:18:04;;;;;;;5.20;3.22;;;;;;;27.73;60.06;99708.58;1663320;83;21015;-63
2021/07/07 09:20:42;;;;;;;3.95;3.60;;;;;;;27.41;61.07;99716.20;1660297;84;21164;-64
2021/07/07 09:23:17;;;;;;;7.65;3.87;;;;;;;27.03;62.03;99709.50;1655123;86;20994;-63
2021/07/07 09:25:56;;;;;;;9.18;4.05;;;;;;;27.11;65.41;99713.20;1650263;85;20917;-63
2021/07/07 09:28:33;;;;;;;7.20;3.33;;;;;;;27.27;62.40;99717.31;1650037;86;21050;-63
2021/07/07 09:31:04;;;;;;;9.60;3.67;;;;;;;27.06;62.29;99718.41;1650414;86;21088;-64
2021/07/07 09:33:42;;;;;;;8.33;3.67;;;;;;;26.93;64.74;99717.75;1646631;86;20952;-63
2021/07/07 09:36:22;;;;;;;3.98;3.12;;;;;;;26.92;65.49;99722.23;1661248;85;21516;-63
2021/07/07 09:38:51;;;;;;;6.78;3.70;;;;;;;27.12;66.13;99725.80;1667917;83;21055;-63
2021/07/07 09:41:19;;;;;;;6.53;3.30;;;;;;;27.18;60.06;99727.72;1680278;84;21426;-64
2021/07/07 09:43:52;;;;;;;7.50;3.55;;;;;;;27.46;61.31;99734.41;1676890;85;21006;-63
2021/07/07 09:46:20;;;;;;;5.80;3.12;;;;;;;27.78;60.66;99738.61;1661239;85;21944;-64
2021/07/07 09:48:48;;;;;;;4.75;3.22;;;;;;;28.18;58.09;99736.59;1651746;86;20955;-64
2021/07/07 09:51:15;;;;;;;9.08;3.25;;;;;;;27.94;56.47;99744.63;1652886;85;21013;-64
2021/07/07 09:53:43;;;;;;;7.87;3.37;;;;;;;27.67;58.98;99743.11;1650284;85;20925;-63
2021/07/07 09:56:09;;;;;;;11.53;2.77;;;;;;;27.71;56.84;99747.33;1637214;84;21600;-66
2021/07/07 09:58:36;;;;;;;6.03;3.07;;;;;;;28.20;55.61;99749.44;1682583;84;21133;-64
2021/07/07 10:01:03;;;;;;;7.22;3.12;;;;;;;28.49;54.37;99749.92;1666020;83;20873;-64
2021/07/07 10:03:31;;;;;;;7.50;2.80;;;;;;;28.96;53.87;99754.20;1680159;83;21394;-64
2021/07/07 10:06:02;;;;;;;7.95;3.25;;;;;;;28.77;54.08;99753.14;1657947;82;21481;-65
2021/07/07 10:08:28;;;;;;;9.83;3.02;;;;;;;28.49;55.97;99756.83;1646249;84;21475;-64
2021/07/07 10:10:58;;;;;;;7.95;3.05;;;;;;;28.25;54.64;99764.86;1649746;86;21088;-64
2021/07/07 10:13:26;;;;;;;6.33;2.90;;;;;;;28.10;57.13;99756.36;1647071;85;21385;-64
2021/07/07 10:15:53;;;;;;;8.00;3.47;;;;;;;27.95;57.93;99764.14;1654545;85;21419;-64
2021/07/07 10:18:20;;;;;;;5.92;3.65;;;;;;;27.92;57.95;99761.53;1673252;83;20917;-63
2021/07/07 10:20:46;;;;;;;3.17;2.87;;;;;;;27.87;57.26;99767.35;1640893;85;20934;-65
2021/07/07 10:23:12;;;;;;;7.20;3.17;;;;;;;27.71;56.90;99764.67;1655222;85;21687;-65
2021/07/07 10:25:39;;;;;;;6.63;3.97;;;;;;;27.66;59.82;99764.14;1634424;85;20997;-65
2021/07/07 10:28:07;;;;;;;8.13;3.25;;;;;;;27.65;60.91;99769.45;1685671;83;21004;-65
2021/07/07 10:30:59;;;;;;;5.95;3.40;;;;;;;27.65;61.06;99767.48;1680154;83;21209;-64
2021/07/07 10:33:29;;;;;;;3.67;3.17;;;;;;;27.52;59.81;99769.60;1671443;85;20991;-66
2021/07/07 10:36:21;;;;;;;11.80;3.47;;;;;;;27.24;58.71;99766.23;1670792;83;20937;-64
2021/07/07 10:38:59;;;;;;;12.33;4.00;;;;;;;26.99;62.15;99774.72;1665513;84;20930;-66
2021/07/07 10:42:00;;;;;;;9.15;3.65;;;;;;;26.82;62.26;99776.48;1665182;83;20970;-65
2021/07/07 10:44:38;;;;;;;4.85;3.55;;;;;;;26.84;64.00;99770.84;1678981;83;20941;-65
2021/07/07 10:47:16;;;;;;;8.48;3.30;;;;;;;26.87;62.45;99772.08;1678578;84;20921;-63
2021/07/07 10:49:54;;;;;;;11.28;3.55;;;;;;;26.80;64.14;99776.04;1679708;83;21854;-63
2021/07/07 10:52:38;;;;;;;5.33;3.42;;;;;;;26.88;64.13;99773.69;1679657;84;20992;-63
2021/07/07 10:55:08;;;;;;;8.83;3.02;;;;;;;27.15;63.40;99777.45;1633666;83;21094;-64
2021/07/07 10:57:37;;;;;;;4.30;3.20;;;;;;;27.58;61.41;99778.37;1650244;83;21034;-64
2021/07/07 11:00:38;;;;;;;5.47;3.25;;;;;;;28.24;62.13;99777.08;1649512;86;20980;-64
2021/07/07 11:03:35;;;;;;;10.65;3.00;;;;;;;28.36;59.80;99770.00;1644327;85;21219;-66
2021/07/07 11:06:26;;;;;;;11.90;3.50;;;;;;;27.85;62.04;99773.81;1669553;83;21428;-66
2021/07/07 11:09:14;;;;;;;8.08;3.25;;;;;;;27.63;62.67;99775.91;1659715;83;21445;-65
2021/07/07 11:11:47;;;;;;;7.62;3.50;;;;;;;27.64;62.46;99780.27;1608134;87;20949;-66
2021/07/07 11:14:22;;;;;;;3.45;3.10;;;;;;;27.91;64.84;99782.02;1605893;86;20925;-66
2021/07/07 11:16:55;;;;;;;5.85;3.22;;;;;;;27.84;60.69;99782.47;1614866;86;21154;-66
2021/07/07 11:19:47;;;;;;;7.30;3.35;;;;;;;27.68;61.18;99775.61;1668963;84;21086;-66
2021/07/07 11:22:16;;;;;;;8.35;3.80;;;;;;;27.74;64.09;99775.55;1661550;85;20884;-66
2021/07/07 11:24:53;;;;;;;6.85;3.35;;;;;;;27.79;62.37;99778.80;1662131;85;20955;-65
2021/07/07 11:27:20;;;;;;;8.93;2.85;;;;;;;27.94;61.52;99777.73;1672793;85;21052;-63
2021/07/07 11:29:48;;;;;;;12.13;4.05;;;;;;;27.84;57.11;99782.47;1675851;84;21145;-63